sensor_id;sensor_type;location;lat;lon;timestamp;P1;durP1;ratioP1;P2;durP2;ratioP2
16973;SDS011;8603;46.944;7.412;2023-01-19T00:01:35;10.17;;;7.13;;
16973;SDS011;8603;46.944;7.412;2023-01-19T00:04:00;12.50;;;7.67;;
16973;SDS011;8603;46.944;7.412;2023-01-19T00:06:26;12.10;;;7.07;;
16973;SDS011;8603;46.944;7.412;2023-01-19T00:08:52;11.13;;;7.33;;
16973;SDS011;8603;46.944;7.412;2023-01-19T00:11:17;9.10;;;7.07;;
16973;SDS011;8603;46.944;7.412;2023-01-19T00:13:44;12.60;;;6.87;;
16973;SDS011;8603;46.944;7.412;2023-01-19T00:16:17;12.67;;;7.40;;
16973;SDS011;8603;46.944;7.412;2023-01-19T00:18:45;10.60;;;6.70;;
16973;SDS011;8603;46.944;7.412;2023-01-19T00:21:11;10.97;;;7.50;;
16973;SDS011;8603;46.944;7.412;2023-01-19T00:23:40;11.93;;;8.13;;
16973;SDS011;8603;46.944;7.412;2023-01-19T00:26:06;11.87;;;7.83;;
16973;SDS011;8603;46.944;7.412;2023-01-19T00:28:32;9.20;;;6.70;;
16973;SDS011;8603;46.944;7.412;2023-01-19T00:30:58;11.10;;;6.73;;
16973;SDS011;8603;46.944;7.412;2023-01-19T00:33:24;11.10;;;7.27;;
16973;SDS011;8603;46.944;7.412;2023-01-19T00:35:50;9.37;;;6.60;;
16973;SDS011;8603;46.944;7.412;2023-01-19T00:38:17;10.50;;;6.63;;
16973;SDS011;8603;46.944;7.412;2023-01-19T00:40:43;11.20;;;6.67;;
16973;SDS011;8603;46.944;7.412;2023-01-19T00:43:09;10.47;;;6.80;;
16973;SDS011;8603;46.944;7.412;2023-01-19T00:45:34;10.80;;;6.87;;
16973;SDS011;8603;46.944;7.412;2023-01-19T00:48:00;13.57;;;7.23;;
16973;SDS011;8603;46.944;7.412;2023-01-19T00:50:26;12.00;;;6.87;;
16973;SDS011;8603;46.944;7.412;2023-01-19T00:52:53;9.90;;;7.10;;
16973;SDS011;8603;46.944;7.412;2023-01-19T00:55:20;10.03;;;6.73;;
16973;SDS011;8603;46.944;7.412;2023-01-19T00:57:46;11.37;;;7.73;;
16973;SDS011;8603;46.944;7.412;2023-01-19T01:00:12;10.73;;;6.90;;
16973;SDS011;8603;46.944;7.412;2023-01-19T01:02:40;10.20;;;6.73;;
16973;SDS011;8603;46.944;7.412;2023-01-19T01:05:07;11.73;;;7.10;;
16973;SDS011;8603;46.944;7.412;2023-01-19T01:07:34;10.87;;;7.60;;
16973;SDS011;8603;46.944;7.412;2023-01-19T01:10:18;12.57;;;8.33;;
16973;SDS011;8603;46.944;7.412;2023-01-19T01:12:46;11.93;;;8.03;;
16973;SDS011;8603;46.944;7.412;2023-01-19T01:15:12;14.60;;;7.60;;
16973;SDS011;8603;46.944;7.412;2023-01-19T01:17:39;12.17;;;7.17;;
16973;SDS011;8603;46.944;7.412;2023-01-19T01:20:18;11.60;;;7.10;;
16973;SDS011;8603;46.944;7.412;2023-01-19T01:22:46;11.23;;;7.40;;
16973;SDS011;8603;46.944;7.412;2023-01-19T01:25:14;10.60;;;6.87;;
16973;SDS011;8603;46.944;7.412;2023-01-19T01:27:41;11.90;;;7.50;;
16973;SDS011;8603;46.944;7.412;2023-01-19T01:30:08;11.07;;;6.40;;
16973;SDS011;8603;46.944;7.412;2023-01-19T01:32:35;9.30;;;6.27;;
16973;SDS011;8603;46.944;7.412;2023-01-19T01:35:00;13.60;;;7.70;;
16973;SDS011;8603;46.944;7.412;2023-01-19T01:37:26;12.37;;;8.10;;
16973;SDS011;8603;46.944;7.412;2023-01-19T01:39:52;13.50;;;7.27;;
16973;SDS011;8603;46.944;7.412;2023-01-19T01:42:18;13.87;;;7.40;;
16973;SDS011;8603;46.944;7.412;2023-01-19T01:44:53;9.97;;;6.37;;
16973;SDS011;8603;46.944;7.412;2023-01-19T01:47:31;9.30;;;5.87;;
16973;SDS011;8603;46.944;7.412;2023-01-19T01:50:22;11.53;;;6.77;;
16973;SDS011;8603;46.944;7.412;2023-01-19T01:52:51;9.57;;;6.60;;
16973;SDS011;8603;46.944;7.412;2023-01-19T01:55:32;9.80;;;6.77;;
16973;SDS011;8603;46.944;7.412;2023-01-19T01:58:04;12.43;;;6.67;;
16973;SDS011;8603;46.944;7.412;2023-01-19T02:00:32;13.33;;;7.30;;
16973;SDS011;8603;46.944;7.412;2023-01-19T02:03:17;9.97;;;6.17;;
16973;SDS011;8603;46.944;7.412;2023-01-19T02:05:43;8.87;;;6.33;;
16973;SDS011;8603;46.944;7.412;2023-01-19T02:11:12;9.67;;;5.23;;
16973;SDS011;8603;46.944;7.412;2023-01-19T02:13:57;8.13;;;5.77;;
16973;SDS011;8603;46.944;7.412;2023-01-19T02:16:22;7.87;;;5.30;;
16973;SDS011;8603;46.944;7.412;2023-01-19T02:18:48;8.30;;;5.50;;
16973;SDS011;8603;46.944;7.412;2023-01-19T02:21:30;7.70;;;5.33;;
16973;SDS011;8603;46.944;7.412;2023-01-19T02:24:08;9.80;;;5.90;;
16973;SDS011;8603;46.944;7.412;2023-01-19T02:26:39;10.60;;;6.23;;
16973;SDS011;8603;46.944;7.412;2023-01-19T02:29:10;9.17;;;5.17;;
16973;SDS011;8603;46.944;7.412;2023-01-19T02:31:38;7.80;;;4.90;;
16973;SDS011;8603;46.944;7.412;2023-01-19T02:34:05;7.27;;;5.10;;
16973;SDS011;8603;46.944;7.412;2023-01-19T02:39:17;7.57;;;5.10;;
16973;SDS011;8603;46.944;7.412;2023-01-19T02:41:53;6.77;;;4.93;;
16973;SDS011;8603;46.944;7.412;2023-01-19T02:44:22;8.00;;;5.07;;
16973;SDS011;8603;46.944;7.412;2023-01-19T02:46:49;9.60;;;5.77;;
16973;SDS011;8603;46.944;7.412;2023-01-19T02:49:18;9.93;;;6.10;;
16973;SDS011;8603;46.944;7.412;2023-01-19T02:51:43;11.10;;;6.50;;
16973;SDS011;8603;46.944;7.412;2023-01-19T02:57:25;10.37;;;5.83;;
16973;SDS011;8603;46.944;7.412;2023-01-19T03:08:41;12.47;;;6.50;;
16973;SDS011;8603;46.944;7.412;2023-01-19T03:11:15;12.87;;;7.60;;
16973;SDS011;8603;46.944;7.412;2023-01-19T03:13:49;11.80;;;6.67;;
16973;SDS011;8603;46.944;7.412;2023-01-19T03:16:33;11.90;;;7.73;;
16973;SDS011;8603;46.944;7.412;2023-01-19T03:19:21;10.97;;;6.90;;
16973;SDS011;8603;46.944;7.412;2023-01-19T03:21:55;14.50;;;7.47;;
16973;SDS011;8603;46.944;7.412;2023-01-19T03:24:23;13.53;;;7.57;;
16973;SDS011;8603;46.944;7.412;2023-01-19T03:26:54;13.93;;;7.43;;
16973;SDS011;8603;46.944;7.412;2023-01-19T03:29:27;13.87;;;8.30;;
16973;SDS011;8603;46.944;7.412;2023-01-19T03:31:55;13.37;;;7.40;;
16973;SDS011;8603;46.944;7.412;2023-01-19T03:34:23;15.10;;;8.00;;
16973;SDS011;8603;46.944;7.412;2023-01-19T03:36:51;15.17;;;8.03;;
16973;SDS011;8603;46.944;7.412;2023-01-19T03:39:21;12.40;;;7.53;;
16973;SDS011;8603;46.944;7.412;2023-01-19T03:41:49;12.93;;;7.03;;
16973;SDS011;8603;46.944;7.412;2023-01-19T03:44:17;13.77;;;8.10;;
16973;SDS011;8603;46.944;7.412;2023-01-19T03:46:44;16.47;;;8.27;;
16973;SDS011;8603;46.944;7.412;2023-01-19T03:49:11;12.20;;;7.63;;
16973;SDS011;8603;46.944;7.412;2023-01-19T03:51:37;18.47;;;7.57;;
16973;SDS011;8603;46.944;7.412;2023-01-19T03:54:04;15.37;;;7.40;;
16973;SDS011;8603;46.944;7.412;2023-01-19T03:56:31;12.93;;;7.00;;
16973;SDS011;8603;46.944;7.412;2023-01-19T03:58:57;10.40;;;6.13;;
16973;SDS011;8603;46.944;7.412;2023-01-19T04:01:23;14.90;;;6.70;;
16973;SDS011;8603;46.944;7.412;2023-01-19T04:03:49;10.97;;;6.67;;
16973;SDS011;8603;46.944;7.412;2023-01-19T04:06:16;11.27;;;6.80;;
16973;SDS011;8603;46.944;7.412;2023-01-19T04:08:43;12.73;;;6.97;;
16973;SDS011;8603;46.944;7.412;2023-01-19T04:11:08;12.57;;;6.90;;
16973;SDS011;8603;46.944;7.412;2023-01-19T04:13:34;9.70;;;6.50;;
16973;SDS011;8603;46.944;7.412;2023-01-19T04:16:00;10.47;;;5.97;;
16973;SDS011;8603;46.944;7.412;2023-01-19T04:18:28;9.23;;;6.40;;
16973;SDS011;8603;46.944;7.412;2023-01-19T04:20:54;11.07;;;6.57;;
16973;SDS011;8603;46.944;7.412;2023-01-19T04:23:23;9.07;;;6.00;;
16973;SDS011;8603;46.944;7.412;2023-01-19T04:25:49;11.03;;;6.97;;
16973;SDS011;8603;46.944;7.412;2023-01-19T04:28:20;9.07;;;5.93;;
16973;SDS011;8603;46.944;7.412;2023-01-19T04:30:48;10.43;;;7.07;;
16973;SDS011;8603;46.944;7.412;2023-01-19T04:33:15;13.97;;;6.60;;
16973;SDS011;8603;46.944;7.412;2023-01-19T04:35:41;16.03;;;7.20;;
16973;SDS011;8603;46.944;7.412;2023-01-19T04:38:08;11.20;;;7.03;;
16973;SDS011;8603;46.944;7.412;2023-01-19T04:40:33;12.03;;;7.50;;
16973;SDS011;8603;46.944;7.412;2023-01-19T04:42:59;11.73;;;7.17;;
16973;SDS011;8603;46.944;7.412;2023-01-19T04:45:25;12.00;;;7.60;;
16973;SDS011;8603;46.944;7.412;2023-01-19T04:47:50;11.80;;;6.90;;
16973;SDS011;8603;46.944;7.412;2023-01-19T04:50:16;13.23;;;7.20;;
16973;SDS011;8603;46.944;7.412;2023-01-19T04:52:41;14.07;;;7.90;;
16973;SDS011;8603;46.944;7.412;2023-01-19T04:55:07;13.20;;;7.67;;
16973;SDS011;8603;46.944;7.412;2023-01-19T04:57:33;12.50;;;7.17;;
16973;SDS011;8603;46.944;7.412;2023-01-19T04:59:59;11.73;;;6.43;;
16973;SDS011;8603;46.944;7.412;2023-01-19T05:02:25;8.77;;;5.70;;
16973;SDS011;8603;46.944;7.412;2023-01-19T05:04:50;12.43;;;7.80;;
16973;SDS011;8603;46.944;7.412;2023-01-19T05:07:16;13.97;;;6.80;;
16973;SDS011;8603;46.944;7.412;2023-01-19T05:09:42;11.70;;;7.27;;
16973;SDS011;8603;46.944;7.412;2023-01-19T05:12:07;18.33;;;7.77;;
16973;SDS011;8603;46.944;7.412;2023-01-19T05:14:34;13.20;;;7.73;;
16973;SDS011;8603;46.944;7.412;2023-01-19T05:17:00;11.40;;;7.47;;
16973;SDS011;8603;46.944;7.412;2023-01-19T05:19:28;13.47;;;7.13;;
16973;SDS011;8603;46.944;7.412;2023-01-19T05:21:53;11.23;;;6.43;;
16973;SDS011;8603;46.944;7.412;2023-01-19T05:24:19;15.97;;;6.97;;
16973;SDS011;8603;46.944;7.412;2023-01-19T05:26:45;14.00;;;7.30;;
16973;SDS011;8603;46.944;7.412;2023-01-19T05:29:10;17.07;;;7.87;;
16973;SDS011;8603;46.944;7.412;2023-01-19T05:31:36;19.97;;;8.70;;
16973;SDS011;8603;46.944;7.412;2023-01-19T05:34:02;16.40;;;8.53;;
16973;SDS011;8603;46.944;7.412;2023-01-19T05:36:28;14.77;;;8.63;;
16973;SDS011;8603;46.944;7.412;2023-01-19T05:38:54;14.80;;;8.20;;
16973;SDS011;8603;46.944;7.412;2023-01-19T05:41:20;13.57;;;7.23;;
16973;SDS011;8603;46.944;7.412;2023-01-19T05:43:45;13.53;;;7.10;;
16973;SDS011;8603;46.944;7.412;2023-01-19T05:46:11;17.53;;;7.77;;
16973;SDS011;8603;46.944;7.412;2023-01-19T05:48:37;11.57;;;6.80;;
16973;SDS011;8603;46.944;7.412;2023-01-19T05:51:03;12.17;;;7.03;;
16973;SDS011;8603;46.944;7.412;2023-01-19T05:53:29;10.10;;;6.33;;
16973;SDS011;8603;46.944;7.412;2023-01-19T05:56:02;11.00;;;6.23;;
16973;SDS011;8603;46.944;7.412;2023-01-19T05:58:29;12.53;;;7.00;;
16973;SDS011;8603;46.944;7.412;2023-01-19T06:00:55;15.13;;;7.33;;
16973;SDS011;8603;46.944;7.412;2023-01-19T06:03:21;12.10;;;7.20;;
16973;SDS011;8603;46.944;7.412;2023-01-19T06:05:47;10.80;;;6.50;;
16973;SDS011;8603;46.944;7.412;2023-01-19T06:08:12;12.73;;;7.37;;
16973;SDS011;8603;46.944;7.412;2023-01-19T06:10:38;11.87;;;6.53;;
16973;SDS011;8603;46.944;7.412;2023-01-19T06:13:10;11.23;;;6.13;;
16973;SDS011;8603;46.944;7.412;2023-01-19T06:16:40;10.37;;;6.03;;
16973;SDS011;8603;46.944;7.412;2023-01-19T06:30:36;12.93;;;6.20;;
16973;SDS011;8603;46.944;7.412;2023-01-19T06:33:02;9.23;;;6.00;;
16973;SDS011;8603;46.944;7.412;2023-01-19T06:35:28;8.97;;;5.17;;
16973;SDS011;8603;46.944;7.412;2023-01-19T06:37:53;11.80;;;6.00;;
16973;SDS011;8603;46.944;7.412;2023-01-19T06:40:19;9.83;;;5.90;;
16973;SDS011;8603;46.944;7.412;2023-01-19T06:42:45;11.40;;;8.10;;
16973;SDS011;8603;46.944;7.412;2023-01-19T06:45:12;8.40;;;5.23;;
16973;SDS011;8603;46.944;7.412;2023-01-19T06:47:37;11.00;;;6.13;;
16973;SDS011;8603;46.944;7.412;2023-01-19T06:50:03;9.63;;;5.40;;
16973;SDS011;8603;46.944;7.412;2023-01-19T06:52:29;12.70;;;7.50;;
16973;SDS011;8603;46.944;7.412;2023-01-19T06:54:55;14.67;;;7.10;;
16973;SDS011;8603;46.944;7.412;2023-01-19T06:57:20;14.90;;;7.47;;
16973;SDS011;8603;46.944;7.412;2023-01-19T06:59:47;10.07;;;5.77;;
16973;SDS011;8603;46.944;7.412;2023-01-19T07:02:12;8.97;;;5.87;;
16973;SDS011;8603;46.944;7.412;2023-01-19T07:04:43;10.03;;;6.10;;
16973;SDS011;8603;46.944;7.412;2023-01-19T07:07:09;10.67;;;6.33;;
16973;SDS011;8603;46.944;7.412;2023-01-19T07:09:35;11.93;;;6.33;;
16973;SDS011;8603;46.944;7.412;2023-01-19T07:12:00;9.87;;;6.03;;
16973;SDS011;8603;46.944;7.412;2023-01-19T07:14:26;9.50;;;6.30;;
16973;SDS011;8603;46.944;7.412;2023-01-19T07:16:57;9.67;;;6.70;;
16973;SDS011;8603;46.944;7.412;2023-01-19T07:19:24;15.70;;;7.07;;
16973;SDS011;8603;46.944;7.412;2023-01-19T07:21:49;11.97;;;7.50;;
16973;SDS011;8603;46.944;7.412;2023-01-19T07:24:15;14.73;;;6.90;;
16973;SDS011;8603;46.944;7.412;2023-01-19T07:26:41;10.03;;;6.33;;
16973;SDS011;8603;46.944;7.412;2023-01-19T07:29:06;10.50;;;6.03;;
16973;SDS011;8603;46.944;7.412;2023-01-19T07:31:32;10.43;;;5.77;;
16973;SDS011;8603;46.944;7.412;2023-01-19T07:33:58;12.37;;;6.57;;
16973;SDS011;8603;46.944;7.412;2023-01-19T07:36:24;12.97;;;5.67;;
16973;SDS011;8603;46.944;7.412;2023-01-19T07:38:49;10.97;;;6.17;;
16973;SDS011;8603;46.944;7.412;2023-01-19T07:41:15;11.43;;;5.87;;
16973;SDS011;8603;46.944;7.412;2023-01-19T07:43:41;10.47;;;5.67;;
16973;SDS011;8603;46.944;7.412;2023-01-19T07:46:06;10.73;;;5.57;;
16973;SDS011;8603;46.944;7.412;2023-01-19T07:48:32;10.10;;;6.13;;
16973;SDS011;8603;46.944;7.412;2023-01-19T07:50:58;11.40;;;6.30;;
16973;SDS011;8603;46.944;7.412;2023-01-19T07:53:42;14.90;;;7.33;;
16973;SDS011;8603;46.944;7.412;2023-01-19T07:56:08;12.90;;;7.07;;
16973;SDS011;8603;46.944;7.412;2023-01-19T07:58:34;17.03;;;9.53;;
16973;SDS011;8603;46.944;7.412;2023-01-19T08:00:59;18.07;;;10.80;;
16973;SDS011;8603;46.944;7.412;2023-01-19T08:03:29;15.30;;;9.20;;
16973;SDS011;8603;46.944;7.412;2023-01-19T08:05:54;13.27;;;8.93;;
16973;SDS011;8603;46.944;7.412;2023-01-19T08:08:23;10.27;;;7.57;;
16973;SDS011;8603;46.944;7.412;2023-01-19T08:10:49;9.57;;;6.40;;
16973;SDS011;8603;46.944;7.412;2023-01-19T08:13:15;8.90;;;5.93;;
16973;SDS011;8603;46.944;7.412;2023-01-19T08:15:42;8.57;;;5.40;;
16973;SDS011;8603;46.944;7.412;2023-01-19T08:18:08;7.70;;;5.87;;
16973;SDS011;8603;46.944;7.412;2023-01-19T08:20:35;6.60;;;4.93;;
16973;SDS011;8603;46.944;7.412;2023-01-19T08:23:01;7.20;;;5.17;;
16973;SDS011;8603;46.944;7.412;2023-01-19T08:25:38;6.47;;;4.30;;
16973;SDS011;8603;46.944;7.412;2023-01-19T08:28:08;5.80;;;4.67;;
16973;SDS011;8603;46.944;7.412;2023-01-19T08:30:36;6.87;;;4.43;;
16973;SDS011;8603;46.944;7.412;2023-01-19T08:33:02;5.90;;;4.20;;
16973;SDS011;8603;46.944;7.412;2023-01-19T08:35:32;4.63;;;4.10;;
16973;SDS011;8603;46.944;7.412;2023-01-19T08:38:00;5.23;;;4.37;;
16973;SDS011;8603;46.944;7.412;2023-01-19T08:40:27;5.73;;;4.50;;
16973;SDS011;8603;46.944;7.412;2023-01-19T08:43:01;7.20;;;4.90;;
16973;SDS011;8603;46.944;7.412;2023-01-19T08:45:29;7.23;;;4.80;;
16973;SDS011;8603;46.944;7.412;2023-01-19T08:47:56;6.83;;;4.80;;
16973;SDS011;8603;46.944;7.412;2023-01-19T08:50:23;6.53;;;4.27;;
16973;SDS011;8603;46.944;7.412;2023-01-19T08:52:50;5.47;;;4.37;;
16973;SDS011;8603;46.944;7.412;2023-01-19T08:55:15;5.83;;;4.23;;
16973;SDS011;8603;46.944;7.412;2023-01-19T08:57:41;8.10;;;4.40;;
16973;SDS011;8603;46.944;7.412;2023-01-19T09:00:07;4.43;;;3.90;;
16973;SDS011;8603;46.944;7.412;2023-01-19T09:02:35;5.10;;;4.27;;
16973;SDS011;8603;46.944;7.412;2023-01-19T09:05:01;5.53;;;4.27;;
16973;SDS011;8603;46.944;7.412;2023-01-19T09:07:26;4.43;;;4.00;;
16973;SDS011;8603;46.944;7.412;2023-01-19T09:09:52;4.60;;;3.80;;
16973;SDS011;8603;46.944;7.412;2023-01-19T09:12:18;6.50;;;4.67;;
16973;SDS011;8603;46.944;7.412;2023-01-19T09:14:44;5.23;;;4.30;;
16973;SDS011;8603;46.944;7.412;2023-01-19T09:17:09;5.20;;;4.23;;
16973;SDS011;8603;46.944;7.412;2023-01-19T09:19:35;5.53;;;4.10;;
16973;SDS011;8603;46.944;7.412;2023-01-19T09:22:01;7.17;;;3.83;;
16973;SDS011;8603;46.944;7.412;2023-01-19T09:24:27;5.90;;;3.97;;
16973;SDS011;8603;46.944;7.412;2023-01-19T09:26:53;5.37;;;3.63;;
16973;SDS011;8603;46.944;7.412;2023-01-19T09:29:18;4.77;;;3.80;;
16973;SDS011;8603;46.944;7.412;2023-01-19T09:31:44;7.07;;;4.30;;
16973;SDS011;8603;46.944;7.412;2023-01-19T09:34:09;6.10;;;4.63;;
16973;SDS011;8603;46.944;7.412;2023-01-19T09:36:36;5.60;;;3.93;;
16973;SDS011;8603;46.944;7.412;2023-01-19T09:39:03;7.53;;;4.80;;
16973;SDS011;8603;46.944;7.412;2023-01-19T09:41:36;6.10;;;4.13;;
16973;SDS011;8603;46.944;7.412;2023-01-19T09:44:43;5.83;;;4.00;;
16973;SDS011;8603;46.944;7.412;2023-01-19T09:50:25;6.27;;;4.30;;
16973;SDS011;8603;46.944;7.412;2023-01-19T09:53:04;7.27;;;4.50;;
16973;SDS011;8603;46.944;7.412;2023-01-19T09:55:38;6.17;;;4.60;;
16973;SDS011;8603;46.944;7.412;2023-01-19T09:58:13;6.80;;;4.20;;
16973;SDS011;8603;46.944;7.412;2023-01-19T10:00:42;4.80;;;3.83;;
16973;SDS011;8603;46.944;7.412;2023-01-19T10:03:14;4.17;;;3.57;;
16973;SDS011;8603;46.944;7.412;2023-01-19T10:05:57;4.60;;;3.53;;
16973;SDS011;8603;46.944;7.412;2023-01-19T10:08:42;5.07;;;3.73;;
16973;SDS011;8603;46.944;7.412;2023-01-19T10:11:24;5.20;;;3.60;;
16973;SDS011;8603;46.944;7.412;2023-01-19T10:13:53;6.00;;;3.90;;
16973;SDS011;8603;46.944;7.412;2023-01-19T10:19:48;5.30;;;3.97;;
16973;SDS011;8603;46.944;7.412;2023-01-19T10:22:02;5.37;;;3.57;;
16973;SDS011;8603;46.944;7.412;2023-01-19T10:24:37;4.30;;;3.53;;
16973;SDS011;8603;46.944;7.412;2023-01-19T10:27:16;4.33;;;3.33;;
16973;SDS011;8603;46.944;7.412;2023-01-19T10:29:44;5.40;;;3.40;;
16973;SDS011;8603;46.944;7.412;2023-01-19T10:32:15;5.37;;;3.13;;
16973;SDS011;8603;46.944;7.412;2023-01-19T10:34:46;5.03;;;3.87;;
16973;SDS011;8603;46.944;7.412;2023-01-19T10:46:01;4.70;;;3.43;;
16973;SDS011;8603;46.944;7.412;2023-01-19T10:48:37;5.30;;;3.47;;
16973;SDS011;8603;46.944;7.412;2023-01-19T10:51:07;3.90;;;3.17;;
16973;SDS011;8603;46.944;7.412;2023-01-19T10:53:34;5.07;;;3.33;;
16973;SDS011;8603;46.944;7.412;2023-01-19T10:56:16;5.47;;;3.20;;
16973;SDS011;8603;46.944;7.412;2023-01-19T10:58:47;5.77;;;3.43;;
16973;SDS011;8603;46.944;7.412;2023-01-19T11:01:23;4.70;;;3.57;;
16973;SDS011;8603;46.944;7.412;2023-01-19T11:03:53;4.23;;;3.20;;
16973;SDS011;8603;46.944;7.412;2023-01-19T11:06:27;4.70;;;3.43;;
16973;SDS011;8603;46.944;7.412;2023-01-19T11:09:11;4.43;;;3.00;;
16973;SDS011;8603;46.944;7.412;2023-01-19T11:11:45;5.57;;;3.67;;
16973;SDS011;8603;46.944;7.412;2023-01-19T11:14:13;5.27;;;3.53;;
16973;SDS011;8603;46.944;7.412;2023-01-19T11:16:47;8.03;;;3.57;;
16973;SDS011;8603;46.944;7.412;2023-01-19T11:19:28;4.93;;;3.70;;
16973;SDS011;8603;46.944;7.412;2023-01-19T11:22:06;4.17;;;3.27;;
16973;SDS011;8603;46.944;7.412;2023-01-19T11:24:39;5.70;;;3.27;;
16973;SDS011;8603;46.944;7.412;2023-01-19T11:27:04;5.37;;;2.83;;
16973;SDS011;8603;46.944;7.412;2023-01-19T11:29:30;4.17;;;3.13;;
16973;SDS011;8603;46.944;7.412;2023-01-19T11:32:08;4.53;;;3.57;;
16973;SDS011;8603;46.944;7.412;2023-01-19T11:34:43;3.97;;;3.57;;
16973;SDS011;8603;46.944;7.412;2023-01-19T11:39:44;5.27;;;3.53;;
16973;SDS011;8603;46.944;7.412;2023-01-19T11:42:15;8.27;;;3.37;;
16973;SDS011;8603;46.944;7.412;2023-01-19T11:44:42;5.40;;;3.97;;
16973;SDS011;8603;46.944;7.412;2023-01-19T11:47:23;5.40;;;3.80;;
16973;SDS011;8603;46.944;7.412;2023-01-19T11:49:58;6.33;;;3.87;;
16973;SDS011;8603;46.944;7.412;2023-01-19T11:52:38;4.70;;;3.70;;
16973;SDS011;8603;46.944;7.412;2023-01-19T11:55:31;6.27;;;3.93;;
16973;SDS011;8603;46.944;7.412;2023-01-19T11:58:00;7.20;;;4.53;;
16973;SDS011;8603;46.944;7.412;2023-01-19T12:00:38;6.27;;;3.77;;
16973;SDS011;8603;46.944;7.412;2023-01-19T12:03:30;5.03;;;3.83;;
16973;SDS011;8603;46.944;7.412;2023-01-19T12:05:57;6.10;;;4.47;;
16973;SDS011;8603;46.944;7.412;2023-01-19T12:08:38;6.83;;;4.30;;
16973;SDS011;8603;46.944;7.412;2023-01-19T12:11:07;7.10;;;4.63;;
16973;SDS011;8603;46.944;7.412;2023-01-19T12:13:38;17.03;;;8.63;;
16973;SDS011;8603;46.944;7.412;2023-01-19T12:16:12;8.10;;;5.17;;
16973;SDS011;8603;46.944;7.412;2023-01-19T12:19:25;8.07;;;4.43;;
16973;SDS011;8603;46.944;7.412;2023-01-19T12:21:36;8.77;;;6.50;;
16973;SDS011;8603;46.944;7.412;2023-01-19T12:27:00;8.30;;;5.00;;
16973;SDS011;8603;46.944;7.412;2023-01-19T12:29:31;9.13;;;4.80;;
16973;SDS011;8603;46.944;7.412;2023-01-19T12:32:15;9.73;;;5.77;;
16973;SDS011;8603;46.944;7.412;2023-01-19T12:34:45;7.47;;;5.67;;
16973;SDS011;8603;46.944;7.412;2023-01-19T12:39:57;7.37;;;4.00;;
16973;SDS011;8603;46.944;7.412;2023-01-19T12:42:25;5.83;;;4.40;;
16973;SDS011;8603;46.944;7.412;2023-01-19T12:45:12;7.93;;;4.53;;
16973;SDS011;8603;46.944;7.412;2023-01-19T12:47:49;8.47;;;4.90;;
16973;SDS011;8603;46.944;7.412;2023-01-19T12:50:16;7.57;;;4.60;;
16973;SDS011;8603;46.944;7.412;2023-01-19T12:52:54;5.77;;;4.30;;
16973;SDS011;8603;46.944;7.412;2023-01-19T12:55:33;5.23;;;3.60;;
16973;SDS011;8603;46.944;7.412;2023-01-19T13:01:13;4.67;;;3.33;;
16973;SDS011;8603;46.944;7.412;2023-01-19T13:03:42;5.70;;;3.57;;
16973;SDS011;8603;46.944;7.412;2023-01-19T13:06:10;3.77;;;3.23;;
16973;SDS011;8603;46.944;7.412;2023-01-19T13:08:55;5.10;;;3.70;;
16973;SDS011;8603;46.944;7.412;2023-01-19T13:11:23;3.70;;;3.23;;
16973;SDS011;8603;46.944;7.412;2023-01-19T13:18:43;5.97;;;4.07;;
16973;SDS011;8603;46.944;7.412;2023-01-19T13:24:07;6.50;;;3.70;;
16973;SDS011;8603;46.944;7.412;2023-01-19T13:26:37;5.17;;;3.17;;
16973;SDS011;8603;46.944;7.412;2023-01-19T13:29:13;10.40;;;3.30;;
16973;SDS011;8603;46.944;7.412;2023-01-19T13:31:49;7.23;;;3.90;;
16973;SDS011;8603;46.944;7.412;2023-01-19T13:34:24;3.90;;;3.40;;
16973;SDS011;8603;46.944;7.412;2023-01-19T13:36:52;4.50;;;3.20;;
16973;SDS011;8603;46.944;7.412;2023-01-19T13:39:31;4.47;;;3.30;;
16973;SDS011;8603;46.944;7.412;2023-01-19T13:42:03;8.00;;;3.40;;
16973;SDS011;8603;46.944;7.412;2023-01-19T13:44:41;4.53;;;3.63;;
16973;SDS011;8603;46.944;7.412;2023-01-19T13:47:36;6.23;;;3.50;;
16973;SDS011;8603;46.944;7.412;2023-01-19T13:50:54;5.43;;;3.70;;
16973;SDS011;8603;46.944;7.412;2023-01-19T13:52:58;8.13;;;3.70;;
16973;SDS011;8603;46.944;7.412;2023-01-19T13:55:29;4.93;;;3.77;;
16973;SDS011;8603;46.944;7.412;2023-01-19T13:58:01;5.10;;;4.30;;
16973;SDS011;8603;46.944;7.412;2023-01-19T14:00:28;4.00;;;3.43;;
16973;SDS011;8603;46.944;7.412;2023-01-19T14:02:58;5.07;;;3.37;;
16973;SDS011;8603;46.944;7.412;2023-01-19T14:05:35;4.53;;;3.80;;
16973;SDS011;8603;46.944;7.412;2023-01-19T14:10:41;8.03;;;4.50;;
16973;SDS011;8603;46.944;7.412;2023-01-19T14:15:40;5.13;;;3.93;;
16973;SDS011;8603;46.944;7.412;2023-01-19T14:18:07;6.53;;;4.13;;
16973;SDS011;8603;46.944;7.412;2023-01-19T14:23:35;5.07;;;3.50;;
16973;SDS011;8603;46.944;7.412;2023-01-19T14:29:23;4.70;;;3.67;;
16973;SDS011;8603;46.944;7.412;2023-01-19T14:36:55;5.30;;;3.20;;
16973;SDS011;8603;46.944;7.412;2023-01-19T14:39:22;6.53;;;4.23;;
16973;SDS011;8603;46.944;7.412;2023-01-19T14:41:50;5.70;;;3.80;;
16973;SDS011;8603;46.944;7.412;2023-01-19T14:44:30;4.10;;;3.20;;
16973;SDS011;8603;46.944;7.412;2023-01-19T14:46:59;6.07;;;4.07;;
16973;SDS011;8603;46.944;7.412;2023-01-19T14:49:28;4.87;;;3.50;;
16973;SDS011;8603;46.944;7.412;2023-01-19T14:51:59;5.80;;;3.90;;
16973;SDS011;8603;46.944;7.412;2023-01-19T14:54:30;4.37;;;3.33;;
16973;SDS011;8603;46.944;7.412;2023-01-19T14:57:04;5.60;;;3.73;;
16973;SDS011;8603;46.944;7.412;2023-01-19T14:59:35;5.20;;;3.73;;
16973;SDS011;8603;46.944;7.412;2023-01-19T15:02:00;5.30;;;3.73;;
16973;SDS011;8603;46.944;7.412;2023-01-19T15:04:26;4.23;;;3.30;;
16973;SDS011;8603;46.944;7.412;2023-01-19T15:06:51;5.27;;;3.67;;
16973;SDS011;8603;46.944;7.412;2023-01-19T15:09:19;4.67;;;3.60;;
16973;SDS011;8603;46.944;7.412;2023-01-19T15:11:45;4.87;;;3.60;;
16973;SDS011;8603;46.944;7.412;2023-01-19T15:14:12;4.17;;;3.47;;
16973;SDS011;8603;46.944;7.412;2023-01-19T15:16:39;5.50;;;4.00;;
16973;SDS011;8603;46.944;7.412;2023-01-19T15:19:08;4.47;;;3.40;;
16973;SDS011;8603;46.944;7.412;2023-01-19T15:21:38;4.80;;;3.43;;
16973;SDS011;8603;46.944;7.412;2023-01-19T15:24:09;6.53;;;3.83;;
16973;SDS011;8603;46.944;7.412;2023-01-19T15:26:36;5.10;;;3.83;;
16973;SDS011;8603;46.944;7.412;2023-01-19T15:29:22;7.00;;;3.80;;
16973;SDS011;8603;46.944;7.412;2023-01-19T15:31:50;6.70;;;3.73;;
16973;SDS011;8603;46.944;7.412;2023-01-19T15:34:16;5.00;;;3.90;;
16973;SDS011;8603;46.944;7.412;2023-01-19T15:36:42;8.20;;;3.87;;
16973;SDS011;8603;46.944;7.412;2023-01-19T15:39:08;5.60;;;4.27;;
16973;SDS011;8603;46.944;7.412;2023-01-19T15:41:37;7.77;;;4.00;;
16973;SDS011;8603;46.944;7.412;2023-01-19T15:44:04;5.43;;;3.80;;
16973;SDS011;8603;46.944;7.412;2023-01-19T15:46:31;7.10;;;4.10;;
16973;SDS011;8603;46.944;7.412;2023-01-19T15:48:57;11.20;;;6.63;;
16973;SDS011;8603;46.944;7.412;2023-01-19T15:51:26;12.63;;;8.03;;
16973;SDS011;8603;46.944;7.412;2023-01-19T15:53:53;10.83;;;6.33;;
16973;SDS011;8603;46.944;7.412;2023-01-19T15:56:20;7.90;;;4.97;;
16973;SDS011;8603;46.944;7.412;2023-01-19T15:58:48;7.87;;;4.70;;
16973;SDS011;8603;46.944;7.412;2023-01-19T16:01:15;7.10;;;4.33;;
16973;SDS011;8603;46.944;7.412;2023-01-19T16:03:45;8.23;;;4.80;;
16973;SDS011;8603;46.944;7.412;2023-01-19T16:06:14;5.90;;;4.23;;
16973;SDS011;8603;46.944;7.412;2023-01-19T16:08:43;6.07;;;4.13;;
16973;SDS011;8603;46.944;7.412;2023-01-19T16:11:13;6.97;;;4.73;;
16973;SDS011;8603;46.944;7.412;2023-01-19T16:13:39;5.40;;;4.27;;
16973;SDS011;8603;46.944;7.412;2023-01-19T16:16:13;11.00;;;6.47;;
16973;SDS011;8603;46.944;7.412;2023-01-19T16:18:40;9.33;;;6.10;;
16973;SDS011;8603;46.944;7.412;2023-01-19T16:21:06;8.60;;;5.57;;
16973;SDS011;8603;46.944;7.412;2023-01-19T16:23:32;9.30;;;5.70;;
16973;SDS011;8603;46.944;7.412;2023-01-19T16:26:05;8.57;;;5.53;;
16973;SDS011;8603;46.944;7.412;2023-01-19T16:28:33;7.23;;;4.80;;
16973;SDS011;8603;46.944;7.412;2023-01-19T16:31:00;7.80;;;5.27;;